createdAt,value
2017-08-08T00:03:54.061Z,96.30
2017-08-08T00:08:40.700Z,96.00
2017-08-08T00:13:27.318Z,96.20
2017-08-08T00:18:13.962Z,96.10
2017-08-08T00:23:00.988Z,96.40
2017-08-08T00:27:47.595Z,96.50
2017-08-08T00:32:34.337Z,96.50
2017-08-08T00:37:21.001Z,96.50
2017-08-08T00:42:08.441Z,96.70
2017-08-08T00:46:55.825Z,96.90
2017-08-08T00:51:42.963Z,96.90
2017-08-08T00:56:29.675Z,96.90
2017-08-08T01:01:16.316Z,96.50
2017-08-08T01:06:02.917Z,97.10
2017-08-08T01:10:49.560Z,96.90
2017-08-08T01:15:36.212Z,97.20
2017-08-08T01:20:23.698Z,97.20
2017-08-08T01:25:10.294Z,97.20
2017-08-08T01:29:56.901Z,97.10
2017-08-08T01:34:43.521Z,97.30
2017-08-08T01:39:30.153Z,97.60
2017-08-08T01:44:16.907Z,98.10
2017-08-08T01:49:10.593Z,97.60
2017-08-08T01:53:57.468Z,97.70
2017-08-08T01:58:44.801Z,97.70
2017-08-08T02:03:32.223Z,97.60
2017-08-08T02:08:19.573Z,97.90
2017-08-08T02:13:06.955Z,97.80
2017-08-08T02:17:53.689Z,97.80
2017-08-08T02:22:40.330Z,98.00
2017-08-08T02:27:27.032Z,98.10
2017-08-08T02:32:13.965Z,98.00
2017-08-08T02:37:00.588Z,98.00
2017-08-08T02:41:47.249Z,98.20
2017-08-08T02:46:34.050Z,98.20
2017-08-08T02:51:20.735Z,98.20
2017-08-08T02:56:07.378Z,98.30
2017-08-08T03:00:54.125Z,98.30
2017-08-08T03:05:41.485Z,98.20
2017-08-08T03:10:28.095Z,98.20
2017-08-08T03:15:14.845Z,98.40
2017-08-08T03:20:01.593Z,98.50
2017-08-08T03:24:48.257Z,98.40
2017-08-08T03:29:35.689Z,98.70
2017-08-08T03:34:23.190Z,98.70
2017-08-08T03:39:10.129Z,98.70
2017-08-08T03:43:56.740Z,98.70
2017-08-08T03:48:43.388Z,98.50
2017-08-08T03:53:30.803Z,98.30
2017-08-08T03:58:17.424Z,98.30
2017-08-08T04:03:04.145Z,98.40
2017-08-08T04:07:50.757Z,98.30
2017-08-08T04:12:37.787Z,98.40
2017-08-08T04:17:24.510Z,98.20
2017-08-08T04:22:11.314Z,97.90
2017-08-08T04:26:57.948Z,98.10
2017-08-08T04:31:44.778Z,97.70
2017-08-08T04:36:31.427Z,97.60
2017-08-08T04:41:18.817Z,98.00
2017-08-08T04:46:05.481Z,97.80
2017-08-08T04:50:52.096Z,97.70
2017-08-08T04:55:38.810Z,97.50
2017-08-08T05:00:25.649Z,97.10
2017-08-08T05:05:12.305Z,97.40
2017-08-08T05:09:58.923Z,97.20
2017-08-08T05:14:45.614Z,97.40
2017-08-08T05:19:32.978Z,97.40
2017-08-08T05:24:19.746Z,97.30
2017-08-08T05:29:06.449Z,97.60
2017-08-08T05:33:53.108Z,97.50
2017-08-08T05:38:39.748Z,96.90
2017-08-08T05:43:27.117Z,96.60
2017-08-08T05:48:13.839Z,96.60
2017-08-08T05:53:00.806Z,96.00
2017-08-08T05:57:47.515Z,95.80
2017-08-08T06:02:34.366Z,95.60
2017-08-08T06:07:21.373Z,95.20
2017-08-08T06:12:08.216Z,95.10
2017-08-08T06:16:55.002Z,94.40
2017-08-08T06:21:41.706Z,93.10
2017-08-08T06:26:28.349Z,92.50
2017-08-08T06:31:14.992Z,92.30
2017-08-08T06:36:01.705Z,91.20
2017-08-08T06:40:48.504Z,91.00
2017-08-08T06:45:35.144Z,88.80
2017-08-08T06:50:21.794Z,87.30
2017-08-08T06:55:09.207Z,85.80
2017-08-08T06:59:56.158Z,84.90
2017-08-08T07:04:42.736Z,81.80
2017-08-08T07:09:29.368Z,82.80
2017-08-08T07:14:15.994Z,84.30
2017-08-08T07:19:02.716Z,82.70
2017-08-08T07:23:49.388Z,84.90
2017-08-08T07:28:36.077Z,84.60
2017-08-08T07:33:22.697Z,82.80
2017-08-08T07:38:09.309Z,79.40
2017-08-08T07:42:56.019Z,76.70
2017-08-08T07:47:42.843Z,78.50
2017-08-08T07:52:29.575Z,80.20
2017-08-08T07:57:16.238Z,78.40
2017-08-08T08:02:03.117Z,76.40
2017-08-08T08:06:49.727Z,72.70
2017-08-08T08:11:36.411Z,68.70
2017-08-08T08:16:23.071Z,69.70
2017-08-08T08:21:09.711Z,66.90
2017-08-08T08:25:56.332Z,69.60
2017-08-08T08:30:43.750Z,68.10
2017-08-08T08:35:30.780Z,67.80
2017-08-08T08:40:17.406Z,66.80
2017-08-08T08:45:04.037Z,63.90
2017-08-08T08:49:50.659Z,65.10
2017-08-08T08:54:37.291Z,65.10
2017-08-08T08:59:24.658Z,63.30
2017-08-08T09:04:11.304Z,63.20
2017-08-08T09:08:57.907Z,61.60
2017-08-08T09:13:44.967Z,61.50
2017-08-08T09:18:31.578Z,59.70
2017-08-08T09:23:19.231Z,60.00
2017-08-08T09:28:05.918Z,56.60
2017-08-08T09:32:52.545Z,57.50
2017-08-08T09:37:39.194Z,58.40
2017-08-08T09:42:26.128Z,56.80
2017-08-08T09:47:12.942Z,56.60
2017-08-08T09:51:59.612Z,55.50
2017-08-08T09:56:46.320Z,55.50
2017-08-08T10:01:33.725Z,54.50
2017-08-08T10:06:20.354Z,54.50
2017-08-08T10:11:07.003Z,56.50
2017-08-08T10:15:54.373Z,55.60
2017-08-08T10:20:40.981Z,55.60
2017-08-08T10:25:27.642Z,52.70
2017-08-08T10:30:14.258Z,51.00
2017-08-08T10:35:00.873Z,52.40
2017-08-08T10:39:47.536Z,52.20
2017-08-08T10:44:35.057Z,52.80
2017-08-08T10:49:21.692Z,52.10
2017-08-08T10:54:09.081Z,50.60
2017-08-08T10:58:56.131Z,50.50
2017-08-08T11:03:42.960Z,52.80
2017-08-08T11:08:30.261Z,53.10
2017-08-08T11:13:17.006Z,52.50
2017-08-08T11:18:03.694Z,50.60
2017-08-08T11:22:50.780Z,51.30
2017-08-08T11:27:37.417Z,51.20
2017-08-08T11:32:24.780Z,50.90
2017-08-08T11:37:11.466Z,50.80
2017-08-08T11:41:58.117Z,51.00
2017-08-08T11:46:44.768Z,52.70
2017-08-08T11:51:31.406Z,49.30
2017-08-08T11:56:18.048Z,51.30
2017-08-08T12:01:04.750Z,51.40
2017-08-08T12:05:51.413Z,50.40
2017-08-08T12:10:38.792Z,50.30
2017-08-08T12:15:25.524Z,50.30
2017-08-08T12:20:12.142Z,51.10
2017-08-08T12:24:58.758Z,50.20
2017-08-08T12:29:45.418Z,49.40
2017-08-08T12:34:32.916Z,48.20
2017-08-08T12:39:19.587Z,48.10
2017-08-08T12:44:06.978Z,49.40
2017-08-08T12:48:53.663Z,49.30
2017-08-08T12:53:40.328Z,51.70
2017-08-08T12:58:26.936Z,52.40
2017-08-08T13:03:13.567Z,54.10
2017-08-08T13:08:00.180Z,56.90
2017-08-08T13:12:46.823Z,57.30
2017-08-08T13:17:33.743Z,56.50
2017-08-08T13:22:20.341Z,57.60
2017-08-08T13:27:06.945Z,58.20
2017-08-08T13:31:53.575Z,59.60
2017-08-08T13:36:40.226Z,60.00
2017-08-08T13:41:26.867Z,60.30
2017-08-08T13:46:13.532Z,58.80
2017-08-08T13:51:00.470Z,59.60
2017-08-08T13:55:47.093Z,60.70
2017-08-08T14:00:33.937Z,59.80
2017-08-08T14:05:20.562Z,58.60
2017-08-08T14:10:07.199Z,60.60
2017-08-08T14:14:53.787Z,60.60
2017-08-08T14:19:40.753Z,61.20
2017-08-08T14:24:27.410Z,62.10
2017-08-08T14:29:14.075Z,59.30
2017-08-08T14:34:00.700Z,59.60
2017-08-08T14:38:47.338Z,59.80
2017-08-08T14:43:34.706Z,57.30
2017-08-08T14:48:21.350Z,57.30
2017-08-08T14:53:08.034Z,57.10
2017-08-08T14:57:54.796Z,57.90
2017-08-08T15:02:42.808Z,59.40
2017-08-08T15:07:29.525Z,60.10
2017-08-08T15:12:16.266Z,63.80
2017-08-08T15:17:02.976Z,62.50
2017-08-08T15:21:49.665Z,62.10
2017-08-08T15:26:36.684Z,65.60
2017-08-08T15:31:23.318Z,71.90
2017-08-08T15:36:10.917Z,82.30
2017-08-08T15:40:57.609Z,81.50
2017-08-08T15:45:44.315Z,79.80
2017-08-08T15:50:31.067Z,85.70
2017-08-08T15:55:18.601Z,90.80
2017-08-08T16:00:05.700Z,93.10
2017-08-08T16:04:53.025Z,94.60
2017-08-08T16:09:39.688Z,94.50
2017-08-08T16:14:26.340Z,93.10
2017-08-08T16:19:12.969Z,95.10
2017-08-08T16:23:59.661Z,94.30
2017-08-08T16:28:46.342Z,95.40
2017-08-08T16:33:34.064Z,95.60
2017-08-08T16:38:20.665Z,95.60
2017-08-08T16:43:07.324Z,96.30
2017-08-08T16:47:53.966Z,97.00
2017-08-08T16:52:40.631Z,97.50
2017-08-08T16:57:27.375Z,97.10
2017-08-08T17:02:14.028Z,96.90
2017-08-08T17:07:00.754Z,96.20
2017-08-08T17:11:47.750Z,95.70
2017-08-08T17:16:34.355Z,95.60
2017-08-08T17:21:21.105Z,95.00
2017-08-08T17:26:08.534Z,95.10
2017-08-08T17:30:55.217Z,94.70
2017-08-08T17:35:41.947Z,94.10
2017-08-08T17:40:28.624Z,93.40
2017-08-08T17:45:16.432Z,91.90
2017-08-08T17:50:03.202Z,91.80
2017-08-08T17:54:50.023Z,91.60
2017-08-08T17:59:36.663Z,91.10
2017-08-08T18:04:23.379Z,90.80
2017-08-08T18:09:10.034Z,91.30
2017-08-08T18:13:56.753Z,91.60
2017-08-08T18:18:43.404Z,91.50
2017-08-08T18:23:30.427Z,91.70
2017-08-08T18:28:17.069Z,92.00
2017-08-08T18:33:04.490Z,91.20
2017-08-08T18:37:51.172Z,91.20
2017-08-08T18:42:37.862Z,91.50
2017-08-08T18:47:24.596Z,91.80
2017-08-08T18:52:11.341Z,92.00
2017-08-08T18:56:58.543Z,92.40
2017-08-08T19:01:45.651Z,92.60
2017-08-08T19:06:32.361Z,92.80
2017-08-08T19:11:19.149Z,92.80
2017-08-08T19:16:05.900Z,92.70
2017-08-08T19:20:52.663Z,92.70
2017-08-08T19:25:39.370Z,92.70
2017-08-08T19:30:26.109Z,92.90
2017-08-08T19:35:12.891Z,92.90
2017-08-08T19:39:59.618Z,93.00
2017-08-08T19:44:46.377Z,93.30
2017-08-08T19:49:33.098Z,93.20
2017-08-08T19:54:19.808Z,93.30
2017-08-08T19:59:06.563Z,93.20
2017-08-08T20:03:53.539Z,93.40
2017-08-08T20:08:40.982Z,95.40
2017-08-08T20:13:28.401Z,97.60
2017-08-08T20:18:15.113Z,97.30
2017-08-08T20:23:01.792Z,98.40
2017-08-08T20:27:48.545Z,99.00
2017-08-08T20:32:35.232Z,99.90
2017-08-08T20:37:22.236Z,99.90
2017-08-08T20:42:09.015Z,99.90
2017-08-08T20:46:56.058Z,99.90
2017-08-08T20:51:42.718Z,99.90
2017-08-08T20:56:30.152Z,99.90
2017-08-08T21:01:17.556Z,99.90
2017-08-08T21:06:04.623Z,99.90
2017-08-08T21:10:51.334Z,99.90
2017-08-08T21:15:38.020Z,99.90
2017-08-08T21:20:24.862Z,99.90
2017-08-08T21:25:11.546Z,99.90
2017-08-08T21:29:58.251Z,99.90
2017-08-08T21:34:44.918Z,99.90
2017-08-08T21:39:31.871Z,99.90
2017-08-08T21:44:18.526Z,99.90
2017-08-08T21:49:05.141Z,99.90
2017-08-08T21:53:51.773Z,99.90
2017-08-08T21:58:38.422Z,99.90
2017-08-08T22:03:25.092Z,99.90
2017-08-08T22:08:12.444Z,99.90
2017-08-08T22:12:59.422Z,99.90
2017-08-08T22:17:46.045Z,99.90
2017-08-08T22:22:32.790Z,99.90
2017-08-08T22:27:19.460Z,99.90
2017-08-08T22:32:06.098Z,99.90
2017-08-08T22:36:52.709Z,99.90
2017-08-08T22:41:39.757Z,99.90
2017-08-08T22:46:26.442Z,99.90
2017-08-08T22:51:13.112Z,99.90
2017-08-08T22:55:59.808Z,99.90
2017-08-08T23:00:46.466Z,99.90
2017-08-08T23:05:33.933Z,99.90
2017-08-08T23:10:20.604Z,99.90
2017-08-08T23:15:07.206Z,99.90
2017-08-08T23:19:53.863Z,99.90
2017-08-08T23:24:40.530Z,99.90
2017-08-08T23:29:27.407Z,99.90
2017-08-08T23:34:14.447Z,99.90
2017-08-08T23:39:01.911Z,99.90
2017-08-08T23:43:48.519Z,99.90
2017-08-08T23:48:36.161Z,99.90
2017-08-08T23:53:23.497Z,99.90
2017-08-08T23:58:10.986Z,99.90
